Time;durP1;ratioP1;P1;durP2;ratioP2;P2;SDS_P1;SDS_P2;PMS_P1;PMS_P2;Temp;Humidity;BMP_temperature;BMP_pressure;BME280_temperature;BME280_humidity;BME280_pressure;Samples;Min_cycle;Max_cycle;Signal;HPM_P1;HPM_P2
2023/06/29 00:01:04;;;;;;;5.30;1.67;;;;;;;22.35;58.71;101637.56;5021906;28;20466;-63
2023/06/29 00:03:33;;;;;;;3.78;1.35;;;;;;;22.34;58.61;101641.41;5027881;28;20061;-64
2023/06/29 00:06:01;;;;;;;2.72;1.30;;;;;;;22.34;58.66;101646.88;5023632;28;20109;-64
2023/06/29 00:08:35;;;;;;;5.65;1.42;;;;;;;22.35;58.47;101648.47;5023616;28;20416;-64
2023/06/29 00:11:02;;;;;;;5.85;1.63;;;;;;;22.36;58.24;101649.31;5027700;28;20140;-64
2023/06/29 00:13:28;;;;;;;3.75;1.05;;;;;;;22.35;58.57;101640.28;5022806;28;20485;-64
2023/06/29 00:15:54;;;;;;;2.80;1.40;;;;;;;22.35;58.46;101632.09;5018221;28;20092;-64
2023/06/29 00:18:23;;;;;;;2.22;1.00;;;;;;;22.34;58.39;101634.03;5025097;28;20500;-64
2023/06/29 00:20:51;;;;;;;2.10;1.25;;;;;;;22.35;58.40;101629.38;5024018;28;20033;-64
2023/06/29 00:23:17;;;;;;;6.55;1.20;;;;;;;22.34;58.46;101631.31;5020818;28;20377;-64
2023/06/29 00:25:44;;;;;;;2.63;1.48;;;;;;;22.36;58.53;101627.47;5019285;28;20037;-64
2023/06/29 00:28:10;;;;;;;3.90;1.10;;;;;;;22.35;58.42;101626.66;5024774;28;20033;-64
2023/06/29 00:30:36;;;;;;;2.60;1.35;;;;;;;22.35;58.37;101621.19;5027130;28;20562;-63
2023/06/29 00:33:01;;;;;;;;;;;;;;;22.34;58.42;101625.03;5009897;28;20091;-64
2023/06/29 00:35:27;;;;;;;2.72;1.40;;;;;;;22.34;58.32;101620.38;5024565;28;20025;-64
2023/06/29 00:37:53;;;;;;;3.28;1.10;;;;;;;22.35;58.55;101621.19;5019807;28;20044;-64
2023/06/29 00:40:18;;;;;;;2.85;1.55;;;;;;;22.35;58.53;101626.66;4991614;28;20029;-64
2023/06/29 00:42:44;;;;;;;5.03;1.20;;;;;;;22.34;58.65;101614.94;5013704;28;20041;-64
2023/06/29 00:45:10;;;;;;;4.13;1.27;;;;;;;22.34;58.30;101609.47;5023159;28;20082;-65
2023/06/29 00:47:36;;;;;;;2.38;1.35;;;;;;;22.34;58.48;101609.47;5027358;28;20037;-64
2023/06/29 00:50:03;;;;;;;1.83;1.23;;;;;;;22.34;58.63;101609.47;5031302;28;20040;-64
2023/06/29 00:52:29;;;;;;;3.22;1.20;;;;;;;22.36;58.62;101609.16;5016695;28;20721;-64
2023/06/29 00:54:56;;;;;;;4.93;1.30;;;;;;;22.36;58.30;101600.19;5023277;28;20021;-64
2023/06/29 00:57:22;;;;;;;2.03;1.20;;;;;;;22.33;58.58;101599.69;5028577;28;20045;-64
2023/06/29 00:59:48;;;;;;;1.98;1.30;;;;;;;22.34;58.61;101586.84;5021292;28;20087;-64
2023/06/29 01:02:15;;;;;;;4.70;1.30;;;;;;;22.34;58.54;101598.56;5022232;28;20029;-64
2023/06/29 01:04:45;;;;;;;3.03;1.25;;;;;;;22.34;58.58;101589.56;5028237;28;20040;-64
2023/06/29 01:07:36;;;;;;;1.98;1.40;;;;;;;22.34;58.30;101597.75;5026180;28;20563;-64
2023/06/29 01:10:07;;;;;;;4.35;1.40;;;;;;;22.34;58.31;101595.03;5026794;28;20403;-64
2023/06/29 01:12:34;;;;;;;2.90;1.30;;;;;;;22.34;58.31;101589.56;5025362;28;20098;-64
2023/06/29 01:15:03;;;;;;;1.98;1.20;;;;;;;22.33;58.79;101586.03;5010707;28;20041;-64
2023/06/29 01:17:31;;;;;;;2.53;1.25;;;;;;;22.32;58.54;101584.44;5025077;28;20038;-63
2023/06/29 01:19:58;;;;;;;2.53;1.33;;;;;;;22.33;58.70;101585.25;5016207;28;20034;-63
2023/06/29 01:22:35;;;;;;;2.30;1.38;;;;;;;22.34;58.55;101575.94;5002893;28;20041;-64
2023/06/29 01:25:01;;;;;;;3.75;1.20;;;;;;;22.34;58.67;101575.94;5020623;28;20116;-64
2023/06/29 01:27:29;;;;;;;3.20;1.30;;;;;;;22.33;58.54;101579.78;5023366;28;20039;-64
2023/06/29 01:29:55;;;;;;;2.00;1.52;;;;;;;22.32;58.28;101581.72;5023601;28;20060;-63
2023/06/29 01:32:25;;;;;;;2.63;1.35;;;;;;;22.33;58.55;101579.78;5026382;28;20072;-64
2023/06/29 01:34:51;;;;;;;1.83;1.10;;;;;;;22.33;58.32;101571.59;5017625;28;20034;-63
2023/06/29 01:37:21;;;;;;;4.60;1.30;;;;;;;22.36;58.74;101584.59;5019749;28;20087;-63
2023/06/29 01:39:53;;;;;;;2.28;1.30;;;;;;;22.33;58.58;101575.13;5019400;28;20039;-64
2023/06/29 01:42:21;;;;;;;2.55;1.15;;;;;;;22.33;58.80;101574.34;5024170;28;20033;-63
2023/06/29 01:44:47;;;;;;;2.70;1.02;;;;;;;22.32;58.68;101579.00;5025848;28;20067;-63
2023/06/29 01:47:13;;;;;;;5.38;1.55;;;;;;;22.30;58.58;101572.28;5026264;28;20068;-64
2023/06/29 01:49:39;;;;;;;2.92;1.10;;;;;;;22.29;58.86;101570.69;5027065;28;20464;-63
2023/06/29 01:52:05;;;;;;;2.05;1.23;;;;;;;22.27;58.63;101570.19;5018643;28;20087;-64
2023/06/29 01:54:32;;;;;;;2.28;1.10;;;;;;;22.26;58.95;101571.31;5027419;28;20109;-63
2023/06/29 01:57:00;;;;;;;2.45;1.10;;;;;;;22.24;58.56;101573.59;5023320;28;20039;-63
2023/06/29 01:59:26;;;;;;;2.05;1.23;;;;;;;22.24;58.86;101573.59;5029107;28;20543;-63
2023/06/29 02:01:52;;;;;;;2.42;1.23;;;;;;;22.23;58.62;101569.25;5025668;28;20037;-64
2023/06/29 02:04:17;;;;;;;3.70;1.38;;;;;;;22.22;58.85;101576.66;5028124;28;20057;-65
2023/06/29 02:06:44;;;;;;;4.70;1.20;;;;;;;22.22;58.85;101571.19;5018078;28;20049;-64
2023/06/29 02:09:09;;;;;;;3.03;1.42;;;;;;;22.21;58.89;101568.78;5025552;28;20400;-64
2023/06/29 02:11:37;;;;;;;3.58;1.58;;;;;;;22.21;58.54;101572.28;5022432;28;20025;-63
2023/06/29 02:14:03;;;;;;;3.25;1.50;;;;;;;22.21;58.90;101566.84;5030016;28;20036;-63
2023/06/29 02:16:28;;;;;;;2.88;1.15;;;;;;;22.21;58.72;101566.03;5026926;28;20427;-63
2023/06/29 02:18:54;;;;;;;3.17;1.67;;;;;;;22.20;58.94;101565.25;5024116;28;20037;-63
2023/06/29 02:21:20;;;;;;;3.78;1.42;;;;;;;22.19;59.17;101558.19;5023787;28;20034;-63
2023/06/29 02:23:46;;;;;;;4.55;1.50;;;;;;;22.19;58.67;101562.84;5025895;28;20036;-63
2023/06/29 02:26:12;;;;;;;4.35;1.70;;;;;;;22.19;58.78;101557.41;5013532;28;20151;-63
2023/06/29 02:28:37;;;;;;;3.92;1.55;;;;;;;22.19;58.85;101568.31;5007986;28;20025;-63
2023/06/29 02:31:03;;;;;;;3.17;1.42;;;;;;;22.19;58.69;101571.03;5021831;28;20415;-64
2023/06/29 02:33:29;;;;;;;4.20;1.40;;;;;;;22.18;58.63;101572.97;5021127;28;20111;-63
2023/06/29 02:35:55;;;;;;;3.25;1.52;;;;;;;22.18;58.90;101562.06;5019118;28;20042;-63
2023/06/29 02:38:20;;;;;;;3.30;1.40;;;;;;;22.19;58.60;101568.31;5025063;28;20046;-63
2023/06/29 02:40:46;;;;;;;2.47;1.55;;;;;;;22.17;58.48;101559.66;5020907;28;20161;-64
2023/06/29 02:43:12;;;;;;;;;;;;;;;22.17;58.74;101559.66;5025363;28;20563;-64
2023/06/29 02:45:37;;;;;;;2.00;1.20;;;;;;;22.18;58.53;101569.44;5007236;28;20287;-64
2023/06/29 02:48:03;;;;;;;2.15;1.20;;;;;;;22.17;58.74;101568.66;5020610;28;20049;-64
2023/06/29 02:50:29;;;;;;;4.00;1.73;;;;;;;22.17;58.69;101565.13;5020364;28;20035;-64
2023/06/29 02:52:55;;;;;;;2.15;1.60;;;;;;;22.18;58.56;101572.16;5024583;28;20041;-63
2023/06/29 02:55:22;;;;;;;1.77;1.60;;;;;;;22.17;58.48;101562.38;5029004;28;20030;-63
2023/06/29 02:57:48;;;;;;;2.42;1.33;;;;;;;22.17;58.47;101556.94;5028455;28;20124;-64
2023/06/29 03:00:14;;;;;;;3.20;1.65;;;;;;;22.17;58.65;101559.66;5020144;28;20034;-64
2023/06/29 03:02:40;;;;;;;2.45;1.42;;;;;;;22.16;58.68;101558.88;5025427;28;20170;-64
2023/06/29 03:05:07;;;;;;;2.25;1.40;;;;;;;22.15;58.42;101557.25;5025079;28;20116;-63
2023/06/29 03:07:34;;;;;;;3.53;1.58;;;;;;;22.15;58.46;101553.72;5028136;28;20418;-62
2023/06/29 03:10:01;;;;;;;5.43;1.40;;;;;;;22.16;58.63;101552.59;5019175;28;20037;-65
2023/06/29 03:12:26;;;;;;;2.42;1.83;;;;;;;22.16;58.79;101552.59;5021970;28;20053;-65
2023/06/29 03:14:52;;;;;;;3.17;1.70;;;;;;;22.16;58.62;101558.06;5016670;28;20111;-63
2023/06/29 03:17:17;;;;;;;2.38;1.77;;;;;;;22.15;58.40;101550.97;5025204;28;20083;-63
2023/06/29 03:19:44;;;;;;;3.00;1.42;;;;;;;22.15;58.55;101545.53;5020493;28;20130;-63
2023/06/29 03:22:11;;;;;;;1.98;1.65;;;;;;;22.16;58.65;101547.16;5024352;28;20131;-63
2023/06/29 03:24:36;;;;;;;3.88;1.70;;;;;;;22.15;58.43;101545.53;5028499;28;20029;-61
2023/06/29 03:27:04;;;;;;;2.10;1.70;;;;;;;22.15;58.34;101540.06;5030862;28;20044;-63
2023/06/29 03:29:30;;;;;;;2.85;1.60;;;;;;;22.13;58.58;101543.13;5039130;28;20041;-62
2023/06/29 03:31:56;;;;;;;1.73;1.42;;;;;;;22.14;58.49;101541.19;5032146;28;20052;-63
2023/06/29 03:34:22;;;;;;;2.40;1.58;;;;;;;22.13;58.60;101536.88;5027118;28;20439;-63
2023/06/29 03:36:47;;;;;;;2.00;1.13;;;;;;;22.15;58.70;101550.97;5017204;28;20095;-63
2023/06/29 03:39:13;;;;;;;1.80;1.30;;;;;;;22.13;58.61;101539.59;5024185;28;20037;-62
2023/06/29 03:41:39;;;;;;;1.70;1.30;;;;;;;22.12;58.25;101536.09;5024804;28;20422;-62
2023/06/29 03:44:04;;;;;;;;;;;;;;;22.12;58.53;101544.28;5027272;28;20033;-63
2023/06/29 03:46:30;;;;;;;1.73;1.08;;;;;;;22.13;58.51;101537.69;5019418;28;19917;-62
2023/06/29 03:48:56;;;;;;;1.92;1.30;;;;;;;22.13;58.47;101542.34;5023266;28;20033;-65
2023/06/29 03:51:21;;;;;;;2.05;1.60;;;;;;;22.13;58.54;101534.16;5018042;28;20053;-63
2023/06/29 03:53:47;;;;;;;3.58;1.70;;;;;;;22.12;58.68;101541.53;5019874;28;20033;-62
2023/06/29 03:56:13;;;;;;;2.58;1.52;;;;;;;22.11;58.59;101526.31;5027328;28;20025;-63
2023/06/29 03:58:38;;;;;;;1.95;1.30;;;;;;;22.13;58.26;101536.88;5021788;28;20492;-63
2023/06/29 04:01:04;;;;;;;2.08;1.73;;;;;;;22.12;58.53;101536.09;5022961;28;20072;-64
2023/06/29 04:03:30;;;;;;;2.22;1.67;;;;;;;22.13;58.53;101536.88;5031373;28;20048;-62
2023/06/29 04:05:56;;;;;;;2.30;1.50;;;;;;;22.12;58.46;101535.28;5031409;28;20547;-62
2023/06/29 04:08:24;;;;;;;3.38;1.60;;;;;;;22.12;58.57;101530.63;5031465;28;20029;-63
2023/06/29 04:10:49;;;;;;;2.00;1.63;;;;;;;22.13;58.33;101532.22;5031484;28;20040;-63
2023/06/29 04:13:15;;;;;;;2.10;1.38;;;;;;;22.12;58.52;101530.63;5031137;28;20045;-63
2023/06/29 04:15:41;;;;;;;2.30;1.50;;;;;;;22.12;58.34;101529.84;5029868;28;20041;-62
2023/06/29 04:18:07;;;;;;;1.98;1.70;;;;;;;22.13;58.25;101542.34;5019635;28;20463;-63
2023/06/29 04:20:32;;;;;;;;;;;;;;;22.13;58.31;101539.59;5022640;28;20050;-62
2023/06/29 04:22:58;;;;;;;2.35;1.25;;;;;;;22.12;58.41;101536.09;5009785;28;19913;-63
2023/06/29 04:25:23;;;;;;;2.83;1.60;;;;;;;22.11;58.22;101539.94;5011150;28;20042;-62
2023/06/29 04:27:49;;;;;;;1.67;1.50;;;;;;;22.12;58.33;101538.00;5009828;28;20030;-64
2023/06/29 04:30:17;;;;;;;;;;;;;;;22.11;58.19;101534.50;5011908;28;20038;-62
2023/06/29 04:32:49;;;;;;;2.22;1.48;;;;;;;22.12;58.45;101527.09;5029276;28;19913;-63
2023/06/29 04:35:15;;;;;;;2.50;1.98;;;;;;;22.11;58.23;101520.84;5033970;28;20040;-62
2023/06/29 04:37:41;;;;;;;3.65;1.30;;;;;;;22.11;58.32;101522.78;5039124;28;20254;-62
2023/06/29 04:40:09;;;;;;;;;;;;;;;22.11;58.43;101522.78;5011494;28;20053;-63
2023/06/29 04:42:43;;;;;;;2.45;1.48;;;;;;;22.13;58.42;101515.84;5010596;28;20374;-62
2023/06/29 04:45:17;;;;;;;2.70;1.48;;;;;;;22.11;58.17;101511.88;5011220;28;20100;-63
2023/06/29 04:47:44;;;;;;;2.38;1.48;;;;;;;22.10;57.97;101521.97;5014568;28;20041;-62
2023/06/29 04:50:11;;;;;;;1.92;1.63;;;;;;;22.11;58.13;101511.88;5014433;28;20424;-64
2023/06/29 04:52:36;;;;;;;2.40;1.50;;;;;;;22.10;58.42;101519.25;5017093;28;20121;-64
2023/06/29 04:55:04;;;;;;;1.75;1.45;;;;;;;22.10;58.09;101510.28;5018822;28;20108;-63
2023/06/29 04:57:30;;;;;;;1.98;1.50;;;;;;;22.11;58.13;101511.88;5015613;28;20052;-63
2023/06/29 04:59:56;;;;;;;1.77;1.55;;;;;;;22.11;58.14;101506.41;5030310;28;20051;-64
2023/06/29 05:02:22;;;;;;;2.65;1.90;;;;;;;22.10;58.11;101511.06;5031305;28;20037;-64
2023/06/29 05:04:49;;;;;;;2.25;1.50;;;;;;;22.10;58.17;101502.09;5032944;28;20065;-64
2023/06/29 05:07:15;;;;;;;2.03;1.73;;;;;;;22.10;58.07;101505.63;5025561;28;20052;-63
2023/06/29 05:09:41;;;;;;;2.22;1.55;;;;;;;22.11;58.27;101506.41;5024447;28;20183;-64
2023/06/29 05:12:08;;;;;;;2.70;1.50;;;;;;;22.11;58.11;101511.88;5019625;28;20605;-63
2023/06/29 05:14:33;;;;;;;2.25;1.52;;;;;;;22.10;58.08;101510.28;5024859;28;20064;-64
2023/06/29 05:16:59;;;;;;;1.70;1.60;;;;;;;22.06;58.24;101512.81;5020015;28;20493;-63
2023/06/29 05:19:25;;;;;;;2.72;1.52;;;;;;;21.99;58.35;101515.25;5028740;28;20036;-62
2023/06/29 05:21:50;;;;;;;8.63;4.32;;;;;;;21.92;58.85;101504.84;5041553;28;20029;-63
2023/06/29 05:24:16;;;;;;;7.30;5.50;;;;;;;21.89;59.44;101510.97;5030631;28;20108;-63
2023/06/29 05:26:42;;;;;;;;;;;;;;;21.84;60.13;101508.44;5011875;28;20034;-61
2023/06/29 05:29:07;;;;;;;10.02;6.43;;;;;;;21.80;59.99;101499.28;5008791;28;19924;-63
2023/06/29 05:31:33;;;;;;;13.80;6.97;;;;;;;21.74;60.53;101495.13;5009744;28;20246;-62
2023/06/29 05:33:59;;;;;;;;;;;;;;;21.71;60.96;101503.97;5009318;28;20033;-62
2023/06/29 05:36:24;;;;;;;9.32;7.25;;;;;;;21.72;60.96;101503.66;5010018;28;20284;-62
2023/06/29 05:38:50;;;;;;;10.25;7.65;;;;;;;21.74;61.05;101511.50;5013376;28;20099;-61
2023/06/29 05:41:16;;;;;;;11.05;8.15;;;;;;;21.70;61.11;101513.28;5009579;28;20026;-62
2023/06/29 05:43:41;;;;;;;;;;;;;;;21.73;61.01;101501.72;5009052;28;20588;-62
2023/06/29 05:46:07;;;;;;;13.93;7.78;;;;;;;21.74;60.89;101506.03;5008548;28;20438;-62
2023/06/29 05:48:32;;;;;;;9.35;7.45;;;;;;;21.79;60.81;101506.66;5009719;28;20481;-63
2023/06/29 05:50:58;;;;;;;13.27;7.35;;;;;;;21.80;60.69;101504.75;5026098;28;20124;-64
2023/06/29 05:53:24;;;;;;;9.38;7.60;;;;;;;21.82;60.36;101499.78;5026303;28;20073;-63
2023/06/29 05:55:50;;;;;;;9.85;7.57;;;;;;;21.79;60.77;101514.84;5012618;28;20168;-63
2023/06/29 05:58:15;;;;;;;14.07;7.95;;;;;;;21.79;60.57;101512.13;5025101;28;20036;-64
2023/06/29 06:00:41;;;;;;;12.80;8.80;;;;;;;21.82;60.38;101499.78;5027769;28;20048;-63
2023/06/29 06:03:08;;;;;;;12.95;7.30;;;;;;;21.81;60.58;101506.34;5020394;28;20033;-64
2023/06/29 06:05:33;;;;;;;11.38;7.65;;;;;;;21.80;60.78;101502.03;5037453;28;20033;-63
2023/06/29 06:07:59;;;;;;;12.35;8.10;;;;;;;21.81;60.96;101509.06;5032403;28;20507;-65
2023/06/29 06:10:25;;;;;;;8.50;7.60;;;;;;;21.82;60.71;101515.34;5025507;28;20037;-63
2023/06/29 06:12:50;;;;;;;12.10;7.90;;;;;;;21.78;61.13;101505.06;5017345;28;20080;-62
2023/06/29 06:15:16;;;;;;;12.40;8.63;;;;;;;21.81;61.38;101500.88;5025757;28;20037;-63
2023/06/29 06:17:41;;;;;;;12.38;7.68;;;;;;;21.80;61.07;101515.66;5020954;28;20049;-63
2023/06/29 06:20:09;;;;;;;8.75;7.78;;;;;;;21.80;61.04;101507.47;5008046;28;20037;-64
2023/06/29 06:22:34;;;;;;;10.75;7.43;;;;;;;21.77;61.32;101506.22;5009228;28;20394;-63
2023/06/29 06:25:00;;;;;;;9.20;7.30;;;;;;;21.78;61.56;101501.56;5020323;28;20083;-63
2023/06/29 06:27:26;;;;;;;;;;;;;;;21.78;61.18;101510.53;5034318;28;20084;-64
2023/06/29 06:29:51;;;;;;;14.20;8.07;;;;;;;21.80;61.12;101504.75;5020748;28;19913;-63
2023/06/29 06:32:19;;;;;;;;;;;;;;;21.78;61.60;101505.06;5029200;28;20116;-63
2023/06/29 06:34:50;;;;;;;10.57;7.45;;;;;;;21.78;61.18;101502.34;5028944;28;19921;-62
2023/06/29 06:37:16;;;;;;;15.90;7.93;;;;;;;21.80;61.02;101499.28;5017914;28;20037;-63
2023/06/29 06:39:42;;;;;;;;;;;;;;;21.79;61.20;101493.03;5012833;28;20053;-63
2023/06/29 06:42:07;;;;;;;14.07;7.78;;;;;;;21.81;61.25;101498.16;5026937;28;19912;-64
2023/06/29 06:44:35;;;;;;;;;;;;;;;21.81;61.02;101498.16;4999953;28;20131;-62
2023/06/29 06:47:01;;;;;;;11.90;8.20;;;;;;;21.82;61.45;101488.88;5027221;28;19913;-63
2023/06/29 06:49:26;;;;;;;;;;;;;;;21.82;61.30;101488.88;5029639;28;20495;-63
2023/06/29 06:51:52;;;;;;;9.70;6.80;;;;;;;21.82;61.34;101493.53;5032899;28;20307;-62
2023/06/29 06:54:18;;;;;;;;;;;;;;;21.82;61.26;101488.88;5031857;28;20070;-63
2023/06/29 06:56:43;;;;;;;11.65;7.40;;;;;;;21.81;61.50;101498.16;5032730;28;19956;-63
2023/06/29 06:59:09;;;;;;;14.20;8.48;;;;;;;21.75;61.72;101494.84;5030139;28;20049;-64
2023/06/29 07:01:39;;;;;;;12.07;7.82;;;;;;;21.76;61.78;101485.53;5035397;28;20404;-63
2023/06/29 07:04:05;;;;;;;12.50;8.07;;;;;;;21.77;61.72;101492.56;5024009;28;20045;-65
2023/06/29 07:06:31;;;;;;;;;;;;;;;21.75;61.94;101497.56;5047094;28;20432;-64
2023/06/29 07:08:58;;;;;;;11.07;7.20;;;;;;;21.74;61.89;101490.50;5012264;28;19917;-63
2023/06/29 07:11:23;;;;;;;12.13;7.47;;;;;;;21.76;62.13;101493.72;5028015;28;20493;-62
2023/06/29 07:13:52;;;;;;;12.80;7.15;;;;;;;21.77;62.25;101491.78;5020321;28;20034;-63
2023/06/29 07:16:17;;;;;;;12.73;7.88;;;;;;;21.78;62.09;101498.81;5012852;28;20172;-64
2023/06/29 07:19:04;;;;;;;11.32;6.65;;;;;;;21.79;62.44;101492.25;5032187;28;20163;-62
2023/06/29 07:21:30;;;;;;;11.57;7.45;;;;;;;21.75;62.15;101489.38;5017757;28;20033;-63
2023/06/29 07:23:56;;;;;;;10.48;7.68;;;;;;;21.77;62.23;101487.13;5032105;28;20191;-63
2023/06/29 07:26:24;;;;;;;12.15;7.95;;;;;;;21.82;62.27;101486.16;5030378;28;20037;-63
2023/06/29 07:28:50;;;;;;;12.45;7.43;;;;;;;21.78;62.29;101479.75;5030325;28;20034;-64
2023/06/29 07:31:16;;;;;;;13.15;7.68;;;;;;;21.76;62.28;101469.16;5030977;28;20037;-63
2023/06/29 07:33:42;;;;;;;12.50;7.68;;;;;;;21.79;62.22;101479.41;5032211;28;20379;-62
2023/06/29 07:36:08;;;;;;;14.50;7.95;;;;;;;21.80;62.35;101463.84;5027186;28;20034;-62
2023/06/29 07:38:34;;;;;;;9.98;6.88;;;;;;;21.84;61.80;101464.81;5017770;28;20030;-61
2023/06/29 07:41:03;;;;;;;10.60;7.15;;;;;;;21.85;61.99;101471.84;5031707;28;20559;-62
2023/06/29 07:43:28;;;;;;;12.90;7.97;;;;;;;21.85;61.90;101460.94;5031729;28;20030;-64
2023/06/29 07:45:55;;;;;;;11.27;7.22;;;;;;;21.86;62.22;101464.47;5030271;28;20048;-62
2023/06/29 07:48:21;;;;;;;12.50;7.18;;;;;;;21.88;61.31;101463.03;5031794;28;20030;-62
2023/06/29 07:50:46;;;;;;;11.25;7.38;;;;;;;21.87;61.46;101461.41;5031724;28;20084;-62
2023/06/29 07:53:12;;;;;;;11.00;7.22;;;;;;;21.87;61.98;101464.13;5031711;28;20041;-62
2023/06/29 07:55:37;;;;;;;11.45;6.55;;;;;;;21.87;61.40;101458.69;5031606;28;20037;-63
2023/06/29 07:58:03;;;;;;;12.02;7.55;;;;;;;21.87;62.23;101464.13;5030824;28;20129;-64
2023/06/29 08:00:29;;;;;;;14.82;7.45;;;;;;;21.87;61.40;101458.69;5011380;28;20036;-62
2023/06/29 08:02:54;;;;;;;15.93;8.27;;;;;;;21.90;61.99;101455.31;5026902;28;20044;-63
2023/06/29 08:05:21;;;;;;;11.73;7.68;;;;;;;21.90;62.24;101463.50;5030865;28;20040;-63
2023/06/29 08:07:49;;;;;;;12.60;8.32;;;;;;;21.94;62.37;101458.97;5031082;28;20033;-64
2023/06/29 08:10:15;;;;;;;14.25;8.35;;;;;;;21.95;62.84;101459.78;5028105;28;20045;-63
2023/06/29 08:12:41;;;;;;;13.13;7.72;;;;;;;21.95;62.76;101449.69;5011517;28;20041;-63
2023/06/29 08:15:09;;;;;;;11.52;7.32;;;;;;;21.95;62.82;101460.59;5035626;28;20411;-64
2023/06/29 08:17:35;;;;;;;10.93;7.90;;;;;;;21.97;62.44;101458.31;5026699;28;20045;-63
2023/06/29 08:20:00;;;;;;;15.50;8.57;;;;;;;21.97;62.61;101454.78;5010232;28;20040;-63
2023/06/29 08:22:26;;;;;;;14.23;8.63;;;;;;;21.97;62.65;101458.31;5015610;28;20049;-64
2023/06/29 08:24:52;;;;;;;13.05;7.45;;;;;;;21.96;62.71;101456.72;5031147;28;20037;-63
2023/06/29 08:27:19;;;;;;;14.82;8.02;;;;;;;21.96;62.69;101451.28;5031227;28;20033;-63
2023/06/29 08:29:45;;;;;;;14.38;9.00;;;;;;;21.98;62.57;101445.47;5029667;28;20048;-63
2023/06/29 08:32:10;;;;;;;13.38;8.35;;;;;;;21.99;62.68;101456.06;5030933;28;20408;-64
2023/06/29 08:34:36;;;;;;;11.23;8.13;;;;;;;21.99;62.64;101445.16;5029618;28;20033;-62
2023/06/29 08:37:02;;;;;;;12.82;7.47;;;;;;;21.99;62.55;101439.69;5030830;28;20049;-63
2023/06/29 08:39:27;;;;;;;11.23;6.95;;;;;;;22.00;62.35;101446.75;5045914;28;20026;-63
2023/06/29 08:41:53;;;;;;;14.30;7.22;;;;;;;22.01;62.57;101445.59;5030661;28;20040;-63
2023/06/29 08:44:19;;;;;;;12.65;7.00;;;;;;;22.02;62.62;101441.78;5028999;28;20036;-64
2023/06/29 08:46:46;;;;;;;11.82;6.93;;;;;;;22.03;62.39;101434.38;5050598;28;20044;-62
2023/06/29 08:49:14;;;;;;;11.45;7.65;;;;;;;22.02;62.08;101433.59;5050793;28;20041;-63
2023/06/29 08:51:43;;;;;;;10.60;6.65;;;;;;;22.02;62.15;101428.13;5044389;28;20040;-63
2023/06/29 08:54:11;;;;;;;11.98;7.18;;;;;;;22.02;62.00;101421.88;5028840;28;20047;-64
2023/06/29 08:56:37;;;;;;;11.50;7.35;;;;;;;22.02;61.96;101419.97;5030110;28;20088;-63
2023/06/29 08:59:04;;;;;;;10.57;7.00;;;;;;;22.03;62.36;101416.09;5029968;28;20033;-62
2023/06/29 09:01:31;;;;;;;10.55;7.43;;;;;;;22.04;61.87;101420.41;5030289;28;20120;-62
2023/06/29 09:03:57;;;;;;;12.55;7.10;;;;;;;22.03;61.84;101413.38;5020073;28;20537;-61
2023/06/29 09:06:23;;;;;;;8.82;6.22;;;;;;;22.06;62.01;101409.97;5026315;28;20120;-63
2023/06/29 09:08:49;;;;;;;9.77;6.25;;;;;;;22.09;62.00;101416.75;5019263;28;20400;-64
2023/06/29 09:11:17;;;;;;;;;;;;;;;22.09;62.09;101416.75;5019742;28;20038;-63
2023/06/29 09:13:46;;;;;;;13.20;6.90;;;;;;;22.13;61.92;101409.47;5033946;28;19917;-62
2023/06/29 09:16:14;;;;;;;11.60;6.88;;;;;;;22.15;61.92;101414.59;5018446;28;20048;-62
2023/06/29 09:18:39;;;;;;;11.10;7.30;;;;;;;22.16;62.40;101410.75;5019107;28;20043;-62
2023/06/29 09:21:05;;;;;;;;;;;;;;;22.16;62.12;101416.22;5024024;28;20037;-62
2023/06/29 09:23:33;;;;;;;13.07;7.88;;;;;;;22.15;61.94;101414.59;5017568;28;19917;-61
2023/06/29 09:25:58;;;;;;;12.23;7.40;;;;;;;22.17;62.50;101415.06;5024048;28;20043;-61
2023/06/29 09:28:25;;;;;;;;;;;;;;;22.17;62.00;101412.34;5025334;28;20049;-61
2023/06/29 09:30:51;;;;;;;13.50;7.65;;;;;;;22.18;62.27;101416.66;5019708;28;19925;-61
2023/06/29 09:33:18;;;;;;;11.60;7.28;;;;;;;22.18;61.91;101413.94;5016292;28;20518;-62
